Urb El Recreo, Puerto Rico
Current Conditions -  °F | °C
As of 2:53 AM on Friday 19 Dec 2014 (Local Time) from TJNR Reporting Station
Clear Clear  
Wind Chill: 78°   Ceiling: Unl
Heat Index: 80°   Visibility: 10mi
Dew Point: 67°   Wind: 12mph
Humidity: 68%   Direction: 60°ENE
Pressure: 29.97"   Gusts: NA
Location:  18.1494°N, 65.8294°W
Report Text: TJNR 190653Z AUTO 06010KT 10SM CLR 26/19 A2997 RMK AO2 SLP147 T02560194 $
Loading
Personal Weather Stations






























Interactive Weather Map New forecast layout! Learn more

10-Day Weather Forecast

Advertisements
Track Severe Weather on mobile